Time,TemperatureF,DewpointF,PressureIn,WindDirection,WindDirectionDegrees,WindSpeedMPH,WindSpeedGustMPH,Humidity,HourlyPrecipIn,Conditions,Clouds,dailyrainin,SoftwareType,DateUTC
2013-08-24 00:11:00,59.1,57.0,30.15,NE,56,0.0,0.0,93,0.00,,,0.00,weatherlink.com 1.10,2013-08-24 04:11:00,
2013-08-24 00:26:00,58.8,57.0,30.15,NE,56,0.0,0.0,93,0.00,,,0.00,weatherlink.com 1.10,2013-08-24 04:26:00,
2013-08-24 00:41:00,58.5,57.0,30.15,ENE,57,0.0,0.0,93,0.00,,,0.00,weatherlink.com 1.10,2013-08-24 04:41:00,
2013-08-24 00:56:00,58.3,57.0,30.15,ENE,57,0.0,0.0,94,0.00,,,0.00,weatherlink.com 1.10,2013-08-24 04:56:00,
2013-08-24 01:11:00,57.8,56.0,30.15,NE,56,0.0,0.0,93,0.00,,,0.00,weatherlink.com 1.10,2013-08-24 05:11:00,
2013-08-24 01:26:00,57.5,56.0,30.15,ENE,57,0.0,0.0,94,0.00,,,0.00,weatherlink.com 1.10,2013-08-24 05:26:00,
2013-08-24 01:41:00,57.6,56.0,30.15,ENE,57,0.0,0.0,95,0.00,,,0.00,weatherlink.com 1.10,2013-08-24 05:41:00,
2013-08-24 01:57:00,57.4,56.0,30.16,ENE,57,0.0,0.0,95,0.00,,,0.00,weatherlink.com 1.10,2013-08-24 05:57:00,
2013-08-24 02:12:00,57.5,56.0,30.16,ENE,57,0.0,0.0,95,0.00,,,0.00,weatherlink.com 1.10,2013-08-24 06:12:00,
2013-08-24 02:27:00,57.7,56.0,30.16,ENE,57,0.0,0.0,94,0.00,,,0.00,weatherlink.com 1.10,2013-08-24 06:27:00,
2013-08-24 02:42:00,57.0,56.0,30.16,NE,56,0.0,0.0,95,0.00,,,0.00,weatherlink.com 1.10,2013-08-24 06:42:00,
2013-08-24 02:57:00,56.5,55.0,30.16,NE,56,0.0,0.0,95,0.00,,,0.00,weatherlink.com 1.10,2013-08-24 06:57:00,
2013-08-24 03:12:00,56.7,55.0,30.17,ENE,57,0.0,0.0,95,0.00,,,0.00,weatherlink.com 1.10,2013-08-24 07:12:00,
2013-08-24 03:27:00,56.3,55.0,30.17,NE,56,0.0,0.0,95,0.00,,,0.00,weatherlink.com 1.10,2013-08-24 07:27:00,
2013-08-24 03:42:00,56.1,55.0,30.17,NE,56,0.0,0.0,95,0.00,,,0.00,weatherlink.com 1.10,2013-08-24 07:42:00,
2013-08-24 03:57:00,55.7,54.0,30.18,NE,56,0.0,0.0,95,0.00,,,0.00,weatherlink.com 1.10,2013-08-24 07:57:00,
2013-08-24 04:12:00,55.5,54.0,30.18,NE,56,0.0,0.0,96,0.00,,,0.00,weatherlink.com 1.10,2013-08-24 08:12:00,
2013-08-24 04:27:00,55.0,54.0,30.18,NE,56,0.0,0.0,95,0.00,,,0.00,weatherlink.com 1.10,2013-08-24 08:27:00,
2013-08-24 04:42:00,54.7,54.0,30.18,ENE,57,0.0,0.0,96,0.00,,,0.00,weatherlink.com 1.10,2013-08-24 08:42:00,
2013-08-24 04:57:00,54.8,54.0,30.19,NE,56,0.0,0.0,96,0.00,,,0.00,weatherlink.com 1.10,2013-08-24 08:57:00,
2013-08-24 05:12:00,55.0,54.0,30.19,ENE,57,0.0,0.0,96,0.00,,,0.00,weatherlink.com 1.10,2013-08-24 09:12:00,
2013-08-24 05:27:00,55.0,54.0,30.20,NE,56,0.0,0.0,96,0.00,,,0.00,weatherlink.com 1.10,2013-08-24 09:27:00,
2013-08-24 05:42:00,54.7,54.0,30.20,ENE,57,0.0,0.0,96,0.00,,,0.00,weatherlink.com 1.10,2013-08-24 09:42:00,
2013-08-24 05:57:00,54.5,54.0,30.21,ENE,57,0.0,0.0,97,0.00,,,0.00,weatherlink.com 1.10,2013-08-24 09:57:00,
2013-08-24 06:12:00,54.7,54.0,30.21,NE,56,0.0,0.0,97,0.00,,,0.00,weatherlink.com 1.10,2013-08-24 10:12:00,
2013-08-24 06:27:00,54.0,53.0,30.22,ENE,57,0.0,0.0,96,0.00,,,0.00,weatherlink.com 1.10,2013-08-24 10:27:00,
2013-08-24 06:42:00,53.4,52.0,30.23,NE,56,0.0,0.0,96,0.00,,,0.00,weatherlink.com 1.10,2013-08-24 10:42:00,
2013-08-24 06:57:00,53.5,53.0,30.23,NE,56,0.0,0.0,97,0.00,,,0.00,weatherlink.com 1.10,2013-08-24 10:57:00,
2013-08-24 07:12:00,54.3,54.0,30.23,NE,56,0.0,0.0,97,0.00,,,0.00,weatherlink.com 1.10,2013-08-24 11:12:00,
2013-08-24 07:27:00,54.1,53.0,30.24,NE,56,0.0,0.0,97,0.00,,,0.00,weatherlink.com 1.10,2013-08-24 11:27:00,
2013-08-24 07:42:00,54.2,53.0,30.25,NE,56,0.0,0.0,97,0.00,,,0.00,weatherlink.com 1.10,2013-08-24 11:42:00,
2013-08-24 07:57:00,54.7,54.0,30.25,NE,56,0.0,0.0,97,0.00,,,0.00,weatherlink.com 1.10,2013-08-24 11:57:00,
2013-08-24 08:12:00,56.1,56.0,30.25,North,11,0.0,1.0,98,0.00,,,0.00,weatherlink.com 1.10,2013-08-24 12:12:00,
2013-08-24 08:27:00,59.0,58.0,30.26,NE,34,1.0,1.0,97,0.00,,,0.00,weatherlink.com 1.10,2013-08-24 12:27:00,
2013-08-24 08:42:00,62.5,60.0,30.26,NE,54,1.0,2.0,91,0.00,,,0.00,weatherlink.com 1.10,2013-08-24 12:42:00,
2013-08-24 08:58:00,65.6,59.0,30.27,ENE,78,0.0,3.0,79,0.00,,,0.00,weatherlink.com 1.10,2013-08-24 12:58:00,
2013-08-24 09:13:00,67.7,59.0,30.27,ENE,68,0.0,2.0,74,0.00,,,0.00,weatherlink.com 1.10,2013-08-24 13:13:00,
2013-08-24 09:28:00,69.6,59.0,30.27,NW,311,1.0,3.0,68,0.00,,,0.00,weatherlink.com 1.10,2013-08-24 13:28:00,
2013-08-24 09:43:00,70.9,59.0,30.27,SSE,166,0.0,2.0,66,0.00,,,0.00,weatherlink.com 1.10,2013-08-24 13:43:00,
2013-08-24 09:58:00,71.7,60.0,30.27,East,98,0.0,6.0,66,0.00,,,0.00,weatherlink.com 1.10,2013-08-24 13:58:00,
2013-08-24 10:13:00,73.4,59.0,30.27,SSE,152,2.0,6.0,60,0.00,,,0.00,weatherlink.com 1.10,2013-08-24 14:13:00,
2013-08-24 10:28:00,73.2,59.0,30.27,SE,127,0.0,6.0,62,0.00,,,0.00,weatherlink.com 1.10,2013-08-24 14:28:00,
2013-08-24 10:43:00,73.9,56.0,30.27,ENE,60,1.0,5.0,54,0.00,,,0.00,weatherlink.com 1.10,2013-08-24 14:43:00,
2013-08-24 10:58:00,74.8,55.0,30.27,ENE,71,2.0,8.0,50,0.00,,,0.00,weatherlink.com 1.10,2013-08-24 14:58:00,
2013-08-24 11:13:00,76.1,56.0,30.27,SSE,158,0.0,4.0,50,0.00,,,0.00,weatherlink.com 1.10,2013-08-24 15:13:00,
2013-08-24 11:28:00,77.3,55.0,30.27,North,6,3.0,4.0,47,0.00,,,0.00,weatherlink.com 1.10,2013-08-24 15:28:00,
2013-08-24 11:43:00,77.2,56.0,30.27,NNW,338,1.0,5.0,48,0.00,,,0.00,weatherlink.com 1.10,2013-08-24 15:43:00,
2013-08-24 11:58:00,77.5,57.0,30.26,SSE,153,2.0,8.0,50,0.00,,,0.00,weatherlink.com 1.10,2013-08-24 15:58:00,
2013-08-24 12:13:00,78.3,56.0,30.25,SE,129,2.0,7.0,47,0.00,,,0.00,weatherlink.com 1.10,2013-08-24 16:13:00,
2013-08-24 12:28:00,78.8,57.0,30.25,ENE,60,2.0,6.0,47,0.00,,,0.00,weatherlink.com 1.10,2013-08-24 16:28:00,
2013-08-24 12:43:00,78.6,57.0,30.25,NNE,22,3.0,9.0,48,0.00,,,0.00,weatherlink.com 1.10,2013-08-24 16:43:00,
2013-08-24 12:58:00,78.7,58.0,30.25,ESE,120,2.0,9.0,49,0.00,,,0.00,weatherlink.com 1.10,2013-08-24 16:58:00,
2013-08-24 13:13:00,79.4,57.0,30.24,East,90,1.0,9.0,47,0.00,,,0.00,weatherlink.com 1.10,2013-08-24 17:13:00,
2013-08-24 13:28:00,79.2,58.0,30.24,SSE,148,6.0,7.0,48,0.00,,,0.00,weatherlink.com 1.10,2013-08-24 17:28:00,
2013-08-24 13:43:00,79.4,59.0,30.25,ENE,58,6.0,8.0,49,0.00,,,0.00,weatherlink.com 1.10,2013-08-24 17:43:00,
2013-08-24 13:58:00,80.0,57.0,30.24,SE,131,5.0,8.0,45,0.00,,,0.00,weatherlink.com 1.10,2013-08-24 17:58:00,
2013-08-24 14:13:00,79.9,56.0,30.25,SSE,162,7.0,10.0,44,0.00,,,0.00,weatherlink.com 1.10,2013-08-24 18:13:00,
2013-08-24 14:28:00,79.9,55.0,30.24,SE,129,4.0,10.0,43,0.00,,,0.00,weatherlink.com 1.10,2013-08-24 18:28:00,
2013-08-24 14:44:00,80.7,57.0,30.24,SE,131,6.0,9.0,44,0.00,,,0.00,weatherlink.com 1.10,2013-08-24 18:44:00,
2013-08-24 14:59:00,80.7,57.0,30.24,SW,228,0.0,6.0,44,0.00,,,0.00,weatherlink.com 1.10,2013-08-24 18:59:00,
2013-08-24 15:14:00,80.9,56.0,30.23,SE,129,5.0,8.0,42,0.00,,,0.00,weatherlink.com 1.10,2013-08-24 19:14:00,
2013-08-24 15:29:00,81.1,57.0,30.23,SE,132,3.0,8.0,44,0.00,,,0.00,weatherlink.com 1.10,2013-08-24 19:29:00,
2013-08-24 15:44:00,80.8,57.0,30.23,South,172,7.0,10.0,44,0.00,,,0.00,weatherlink.com 1.10,2013-08-24 19:44:00,
2013-08-24 15:59:00,81.0,56.0,30.22,SE,139,3.0,9.0,42,0.00,,,0.00,weatherlink.com 1.10,2013-08-24 19:59:00,
2013-08-24 16:14:00,81.0,54.0,30.22,SSE,162,2.0,8.0,39,0.00,,,0.00,weatherlink.com 1.10,2013-08-24 20:14:00,
2013-08-24 16:29:00,81.5,55.0,30.22,SSE,151,5.0,8.0,40,0.00,,,0.00,weatherlink.com 1.10,2013-08-24 20:29:00,
2013-08-24 16:44:00,81.8,55.0,30.22,SE,144,0.0,7.0,40,0.00,,,0.00,weatherlink.com 1.10,2013-08-24 20:44:00,
2013-08-24 16:59:00,82.1,55.0,30.22,ESE,120,3.0,8.0,40,0.00,,,0.00,weatherlink.com 1.10,2013-08-24 20:59:00,
2013-08-24 17:14:00,81.9,52.0,30.21,SSE,167,4.0,7.0,36,0.00,,,0.00,weatherlink.com 1.10,2013-08-24 21:14:00,
2013-08-24 17:29:00,81.6,56.0,30.21,SSE,147,6.0,7.0,41,0.00,,,0.00,weatherlink.com 1.10,2013-08-24 21:29:00,
2013-08-24 17:44:00,81.5,53.0,30.21,SSE,159,3.0,7.0,38,0.00,,,0.00,weatherlink.com 1.10,2013-08-24 21:44:00,
2013-08-24 17:59:00,81.6,55.0,30.21,SE,141,2.0,4.0,40,0.00,,,0.00,weatherlink.com 1.10,2013-08-24 21:59:00,
2013-08-24 18:14:00,81.7,54.0,30.21,ESE,123,3.0,5.0,39,0.00,,,0.00,weatherlink.com 1.10,2013-08-24 22:14:00,
2013-08-24 18:29:00,81.5,55.0,30.21,ESE,105,0.0,4.0,40,0.00,,,0.00,weatherlink.com 1.10,2013-08-24 22:29:00,
2013-08-24 18:44:00,82.1,55.0,30.21,East,98,1.0,4.0,40,0.00,,,0.00,weatherlink.com 1.10,2013-08-24 22:44:00,
2013-08-24 18:59:00,81.3,57.0,30.21,SE,131,0.0,4.0,44,0.00,,,0.00,weatherlink.com 1.10,2013-08-24 22:59:00,
2013-08-24 19:14:00,80.7,56.0,30.20,SE,125,0.0,2.0,43,0.00,,,0.00,weatherlink.com 1.10,2013-08-24 23:14:00,
2013-08-24 19:29:00,80.9,58.0,30.20,SE,141,0.0,2.0,46,0.00,,,0.00,weatherlink.com 1.10,2013-08-24 23:29:00,
2013-08-24 19:44:00,81.2,58.0,30.20,SE,141,0.0,1.0,46,0.00,,,0.00,weatherlink.com 1.10,2013-08-24 23:44:00,
2013-08-24 19:59:00,80.4,63.0,30.21,SE,141,0.0,0.0,55,0.00,,,0.00,weatherlink.com 1.10,2013-08-24 23:59:00,
2013-08-24 20:14:00,78.1,61.0,30.21,SE,141,0.0,0.0,55,0.00,,,0.00,weatherlink.com 1.10,2013-08-25 00:14:00,
2013-08-24 20:29:00,74.3,59.0,30.21,SE,139,0.0,0.0,60,0.00,,,0.00,weatherlink.com 1.10,2013-08-25 00:29:00,
2013-08-24 20:44:00,70.2,60.0,30.21,SE,139,0.0,0.0,69,0.00,,,0.00,weatherlink.com 1.10,2013-08-25 00:44:00,
2013-08-24 20:59:00,67.5,59.0,30.21,SE,139,0.0,0.0,75,0.00,,,0.00,weatherlink.com 1.10,2013-08-25 00:59:00,
2013-08-24 21:14:00,66.0,59.0,30.21,SE,139,0.0,0.0,79,0.00,,,0.00,weatherlink.com 1.10,2013-08-25 01:14:00,
2013-08-24 21:29:00,64.7,59.0,30.22,SE,139,0.0,0.0,83,0.00,,,0.00,weatherlink.com 1.10,2013-08-25 01:29:00,
2013-08-24 21:44:00,63.3,59.0,30.23,SE,139,0.0,0.0,87,0.00,,,0.00,weatherlink.com 1.10,2013-08-25 01:44:00,
2013-08-24 21:59:00,62.6,59.0,30.22,SE,140,0.0,0.0,88,0.00,,,0.00,weatherlink.com 1.10,2013-08-25 01:59:00,
2013-08-24 22:14:00,62.1,59.0,30.22,SE,139,0.0,0.0,88,0.00,,,0.00,weatherlink.com 1.10,2013-08-25 02:14:00,
2013-08-24 22:29:00,61.2,58.0,30.22,SE,139,0.0,0.0,89,0.00,,,0.00,weatherlink.com 1.10,2013-08-25 02:29:00,
2013-08-24 22:44:00,60.2,57.0,30.22,SE,141,0.0,0.0,89,0.00,,,0.00,weatherlink.com 1.10,2013-08-25 02:44:00,
2013-08-24 22:59:00,60.6,58.0,30.23,SE,141,0.0,0.0,92,0.00,,,0.00,weatherlink.com 1.10,2013-08-25 02:59:00,
2013-08-24 23:14:00,60.1,58.0,30.23,SE,141,0.0,0.0,91,0.00,,,0.00,weatherlink.com 1.10,2013-08-25 03:14:00,
2013-08-24 23:29:00,59.5,57.0,30.22,SE,141,0.0,0.0,92,0.00,,,0.00,weatherlink.com 1.10,2013-08-25 03:29:00,
2013-08-24 23:44:00,59.2,57.0,30.22,SE,141,0.0,0.0,93,0.00,,,0.00,weatherlink.com 1.10,2013-08-25 03:44:00,
2013-08-24 23:59:00,59.2,57.0,30.22,SE,141,0.0,0.0,93,0.00,,,0.00,weatherlink.com 1.10,2013-08-25 03:59:00,